sensor_id;sensor_type;location;lat;lon;timestamp;P1;durP1;ratioP1;P2;durP2;ratioP2
11677;SDS011;5895;41.950;24.372;2022-09-23T00:00:39;3.45;;;2.30;;
11677;SDS011;5895;41.950;24.372;2022-09-23T00:03:07;2.58;;;2.38;;
11677;SDS011;5895;41.950;24.372;2022-09-23T00:05:35;2.10;;;1.95;;
11677;SDS011;5895;41.950;24.372;2022-09-23T00:08:03;5.82;;;2.42;;
11677;SDS011;5895;41.950;24.372;2022-09-23T00:10:31;2.40;;;2.17;;
11677;SDS011;5895;41.950;24.372;2022-09-23T00:13:03;2.80;;;2.25;;
11677;SDS011;5895;41.950;24.372;2022-09-23T00:15:36;3.15;;;2.13;;
11677;SDS011;5895;41.950;24.372;2022-09-23T00:18:04;3.30;;;1.80;;
11677;SDS011;5895;41.950;24.372;2022-09-23T00:20:32;2.33;;;2.15;;
11677;SDS011;5895;41.950;24.372;2022-09-23T00:23:00;2.40;;;2.20;;
11677;SDS011;5895;41.950;24.372;2022-09-23T00:25:28;2.50;;;2.28;;
11677;SDS011;5895;41.950;24.372;2022-09-23T00:27:56;3.65;;;2.10;;
11677;SDS011;5895;41.950;24.372;2022-09-23T00:30:25;4.65;;;2.00;;
11677;SDS011;5895;41.950;24.372;2022-09-23T00:32:53;2.08;;;1.90;;
11677;SDS011;5895;41.950;24.372;2022-09-23T00:35:21;4.40;;;2.20;;
11677;SDS011;5895;41.950;24.372;2022-09-23T00:37:48;2.30;;;2.10;;
11677;SDS011;5895;41.950;24.372;2022-09-23T00:40:16;3.85;;;2.03;;
11677;SDS011;5895;41.950;24.372;2022-09-23T00:42:44;2.20;;;2.00;;
11677;SDS011;5895;41.950;24.372;2022-09-23T00:45:13;3.13;;;1.98;;
11677;SDS011;5895;41.950;24.372;2022-09-23T00:47:44;2.78;;;1.90;;
11677;SDS011;5895;41.950;24.372;2022-09-23T00:50:16;1.90;;;1.80;;
11677;SDS011;5895;41.950;24.372;2022-09-23T00:52:49;1.95;;;1.85;;
11677;SDS011;5895;41.950;24.372;2022-09-23T00:55:19;2.33;;;2.00;;
11677;SDS011;5895;41.950;24.372;2022-09-23T00:57:50;2.38;;;2.17;;
11677;SDS011;5895;41.950;24.372;2022-09-23T01:00:20;2.25;;;2.05;;
11677;SDS011;5895;41.950;24.372;2022-09-23T01:02:50;2.75;;;1.95;;
11677;SDS011;5895;41.950;24.372;2022-09-23T01:05:19;3.38;;;2.10;;
11677;SDS011;5895;41.950;24.372;2022-09-23T01:07:46;2.20;;;2.00;;
11677;SDS011;5895;41.950;24.372;2022-09-23T01:10:16;2.00;;;1.80;;
11677;SDS011;5895;41.950;24.372;2022-09-23T01:12:48;2.78;;;2.40;;
11677;SDS011;5895;41.950;24.372;2022-09-23T01:15:27;3.33;;;2.10;;
11677;SDS011;5895;41.950;24.372;2022-09-23T01:18:08;2.35;;;2.15;;
11677;SDS011;5895;41.950;24.372;2022-09-23T01:20:55;2.25;;;2.10;;
11677;SDS011;5895;41.950;24.372;2022-09-23T01:23:41;2.22;;;2.03;;
11677;SDS011;5895;41.950;24.372;2022-09-23T01:26:25;1.95;;;1.85;;
11677;SDS011;5895;41.950;24.372;2022-09-23T01:29:12;2.05;;;1.95;;
11677;SDS011;5895;41.950;24.372;2022-09-23T01:32:04;2.22;;;1.90;;
11677;SDS011;5895;41.950;24.372;2022-09-23T01:34:43;1.95;;;1.85;;
11677;SDS011;5895;41.950;24.372;2022-09-23T01:37:17;2.33;;;2.13;;
11677;SDS011;5895;41.950;24.372;2022-09-23T01:39:50;2.38;;;2.20;;
11677;SDS011;5895;41.950;24.372;2022-09-23T01:42:26;2.10;;;2.00;;
11677;SDS011;5895;41.950;24.372;2022-09-23T01:45:00;2.47;;;2.28;;
11677;SDS011;5895;41.950;24.372;2022-09-23T01:47:35;3.17;;;2.10;;
11677;SDS011;5895;41.950;24.372;2022-09-23T01:50:07;2.50;;;2.30;;
11677;SDS011;5895;41.950;24.372;2022-09-23T01:52:53;3.33;;;3.03;;
11677;SDS011;5895;41.950;24.372;2022-09-23T01:55:27;3.05;;;2.75;;
11677;SDS011;5895;41.950;24.372;2022-09-23T01:58:01;2.70;;;2.50;;
11677;SDS011;5895;41.950;24.372;2022-09-23T02:00:32;3.45;;;2.30;;
11677;SDS011;5895;41.950;24.372;2022-09-23T02:03:06;3.10;;;2.80;;
11677;SDS011;5895;41.950;24.372;2022-09-23T02:05:41;2.30;;;2.10;;
11677;SDS011;5895;41.950;24.372;2022-09-23T02:08:12;2.60;;;2.40;;
11677;SDS011;5895;41.950;24.372;2022-09-23T02:10:44;2.80;;;2.60;;
11677;SDS011;5895;41.950;24.372;2022-09-23T02:13:17;2.13;;;2.03;;
11677;SDS011;5895;41.950;24.372;2022-09-23T02:15:49;2.40;;;2.20;;
11677;SDS011;5895;41.950;24.372;2022-09-23T02:18:21;2.33;;;2.22;;
11677;SDS011;5895;41.950;24.372;2022-09-23T02:20:53;2.65;;;2.45;;
11677;SDS011;5895;41.950;24.372;2022-09-23T02:23:25;2.50;;;2.30;;
11677;SDS011;5895;41.950;24.372;2022-09-23T02:26:00;2.50;;;2.30;;
11677;SDS011;5895;41.950;24.372;2022-09-23T02:28:33;2.58;;;2.38;;
11677;SDS011;5895;41.950;24.372;2022-09-23T02:31:10;2.70;;;2.47;;
11677;SDS011;5895;41.950;24.372;2022-09-23T02:33:49;2.63;;;2.42;;
11677;SDS011;5895;41.950;24.372;2022-09-23T02:36:23;3.45;;;2.22;;
11677;SDS011;5895;41.950;24.372;2022-09-23T02:38:56;2.83;;;2.53;;
11677;SDS011;5895;41.950;24.372;2022-09-23T02:41:29;3.38;;;2.30;;
11677;SDS011;5895;41.950;24.372;2022-09-23T02:44:02;2.88;;;2.47;;
11677;SDS011;5895;41.950;24.372;2022-09-23T02:46:32;2.90;;;2.60;;
11677;SDS011;5895;41.950;24.372;2022-09-23T02:49:02;2.55;;;2.35;;
11677;SDS011;5895;41.950;24.372;2022-09-23T02:51:35;2.60;;;2.40;;
11677;SDS011;5895;41.950;24.372;2022-09-23T02:54:03;2.60;;;2.40;;
11677;SDS011;5895;41.950;24.372;2022-09-23T02:56:34;3.03;;;2.72;;
11677;SDS011;5895;41.950;24.372;2022-09-23T02:59:03;2.60;;;2.40;;
11677;SDS011;5895;41.950;24.372;2022-09-23T03:01:34;2.72;;;2.53;;
11677;SDS011;5895;41.950;24.372;2022-09-23T03:04:10;2.53;;;2.20;;
11677;SDS011;5895;41.950;24.372;2022-09-23T03:06:46;2.90;;;2.70;;
11677;SDS011;5895;41.950;24.372;2022-09-23T03:09:21;2.70;;;2.50;;
11677;SDS011;5895;41.950;24.372;2022-09-23T03:11:54;2.60;;;2.40;;
11677;SDS011;5895;41.950;24.372;2022-09-23T03:14:31;2.40;;;2.30;;
11677;SDS011;5895;41.950;24.372;2022-09-23T03:17:06;2.50;;;2.30;;
11677;SDS011;5895;41.950;24.372;2022-09-23T03:19:44;2.38;;;2.20;;
11677;SDS011;5895;41.950;24.372;2022-09-23T03:22:15;2.70;;;2.50;;
11677;SDS011;5895;41.950;24.372;2022-09-23T03:24:47;3.10;;;2.80;;
11677;SDS011;5895;41.950;24.372;2022-09-23T03:27:18;2.80;;;2.60;;
11677;SDS011;5895;41.950;24.372;2022-09-23T03:29:50;2.63;;;2.40;;
11677;SDS011;5895;41.950;24.372;2022-09-23T03:32:20;2.80;;;2.60;;
11677;SDS011;5895;41.950;24.372;2022-09-23T03:34:53;2.88;;;2.67;;
11677;SDS011;5895;41.950;24.372;2022-09-23T03:37:24;3.00;;;2.70;;
11677;SDS011;5895;41.950;24.372;2022-09-23T03:39:58;3.72;;;2.60;;
11677;SDS011;5895;41.950;24.372;2022-09-23T03:42:33;2.70;;;2.50;;
11677;SDS011;5895;41.950;24.372;2022-09-23T03:45:03;2.53;;;2.33;;
11677;SDS011;5895;41.950;24.372;2022-09-23T04:04:08;3.35;;;2.53;;
11677;SDS011;5895;41.950;24.372;2022-09-23T04:06:36;2.63;;;2.42;;
11677;SDS011;5895;41.950;24.372;2022-09-23T04:09:03;2.58;;;2.38;;
11677;SDS011;5895;41.950;24.372;2022-09-23T04:11:31;2.25;;;2.13;;
11677;SDS011;5895;41.950;24.372;2022-09-23T04:13:59;2.80;;;2.60;;
11677;SDS011;5895;41.950;24.372;2022-09-23T04:16:27;3.13;;;2.90;;
11677;SDS011;5895;41.950;24.372;2022-09-23T04:18:54;3.65;;;2.30;;
11677;SDS011;5895;41.950;24.372;2022-09-23T04:21:23;2.83;;;2.63;;
11677;SDS011;5895;41.950;24.372;2022-09-23T04:23:51;2.80;;;2.60;;
11677;SDS011;5895;41.950;24.372;2022-09-23T04:26:19;24.58;;;14.63;;
11677;SDS011;5895;41.950;24.372;2022-09-23T04:28:46;19.88;;;12.55;;
11677;SDS011;5895;41.950;24.372;2022-09-23T04:31:14;19.88;;;12.45;;
11677;SDS011;5895;41.950;24.372;2022-09-23T04:33:41;63.17;;;11.57;;
11677;SDS011;5895;41.950;24.372;2022-09-23T04:36:09;30.55;;;10.10;;
11677;SDS011;5895;41.950;24.372;2022-09-23T04:38:38;14.77;;;9.45;;
11677;SDS011;5895;41.950;24.372;2022-09-23T04:41:07;18.63;;;16.63;;
11677;SDS011;5895;41.950;24.372;2022-09-23T04:43:35;18.65;;;15.52;;
11677;SDS011;5895;41.950;24.372;2022-09-23T04:46:03;15.27;;;13.30;;
11677;SDS011;5895;41.950;24.372;2022-09-23T04:48:33;19.08;;;10.52;;
11677;SDS011;5895;41.950;24.372;2022-09-23T04:51:01;15.35;;;8.45;;
11677;SDS011;5895;41.950;24.372;2022-09-23T04:53:29;12.73;;;7.38;;
11677;SDS011;5895;41.950;24.372;2022-09-23T04:56:01;4.75;;;4.10;;
11677;SDS011;5895;41.950;24.372;2022-09-23T04:58:30;7.30;;;5.63;;
11677;SDS011;5895;41.950;24.372;2022-09-23T05:01:06;7.85;;;4.53;;
11677;SDS011;5895;41.950;24.372;2022-09-23T05:03:34;5.38;;;3.42;;
11677;SDS011;5895;41.950;24.372;2022-09-23T05:06:02;4.32;;;3.92;;
11677;SDS011;5895;41.950;24.372;2022-09-23T05:08:30;12.43;;;9.48;;
11677;SDS011;5895;41.950;24.372;2022-09-23T05:10:58;17.80;;;15.38;;
11677;SDS011;5895;41.950;24.372;2022-09-23T05:13:28;16.33;;;12.60;;
11677;SDS011;5895;41.950;24.372;2022-09-23T05:15:56;13.18;;;10.55;;
11677;SDS011;5895;41.950;24.372;2022-09-23T05:18:24;12.57;;;10.55;;
11677;SDS011;5895;41.950;24.372;2022-09-23T05:20:52;11.23;;;9.80;;
11677;SDS011;5895;41.950;24.372;2022-09-23T05:23:20;11.40;;;10.13;;
11677;SDS011;5895;41.950;24.372;2022-09-23T05:25:47;10.80;;;9.25;;
11677;SDS011;5895;41.950;24.372;2022-09-23T05:28:15;7.63;;;6.82;;
11677;SDS011;5895;41.950;24.372;2022-09-23T05:30:45;9.50;;;7.68;;
11677;SDS011;5895;41.950;24.372;2022-09-23T05:33:13;7.18;;;6.47;;
11677;SDS011;5895;41.950;24.372;2022-09-23T05:35:45;6.43;;;5.32;;
11677;SDS011;5895;41.950;24.372;2022-09-23T05:38:13;4.18;;;3.88;;
11677;SDS011;5895;41.950;24.372;2022-09-23T05:40:42;4.10;;;3.80;;
11677;SDS011;5895;41.950;24.372;2022-09-23T05:43:09;4.80;;;4.30;;
11677;SDS011;5895;41.950;24.372;2022-09-23T05:45:37;4.25;;;3.90;;
11677;SDS011;5895;41.950;24.372;2022-09-23T05:48:06;2.90;;;2.70;;
11677;SDS011;5895;41.950;24.372;2022-09-23T05:50:33;3.25;;;2.95;;
11677;SDS011;5895;41.950;24.372;2022-09-23T05:53:01;3.33;;;2.63;;
11677;SDS011;5895;41.950;24.372;2022-09-23T05:55:28;2.60;;;2.40;;
11677;SDS011;5895;41.950;24.372;2022-09-23T05:57:55;2.38;;;2.20;;
11677;SDS011;5895;41.950;24.372;2022-09-23T06:00:23;2.80;;;2.55;;
11677;SDS011;5895;41.950;24.372;2022-09-23T06:02:51;2.83;;;2.63;;
11677;SDS011;5895;41.950;24.372;2022-09-23T06:05:20;2.78;;;2.58;;
11677;SDS011;5895;41.950;24.372;2022-09-23T06:07:47;2.70;;;2.50;;
11677;SDS011;5895;41.950;24.372;2022-09-23T06:10:15;2.42;;;2.25;;
11677;SDS011;5895;41.950;24.372;2022-09-23T06:12:42;3.13;;;2.88;;
11677;SDS011;5895;41.950;24.372;2022-09-23T06:15:10;2.90;;;2.60;;
11677;SDS011;5895;41.950;24.372;2022-09-23T06:17:37;3.78;;;3.50;;
11677;SDS011;5895;41.950;24.372;2022-09-23T06:20:05;5.15;;;2.67;;
11677;SDS011;5895;41.950;24.372;2022-09-23T06:22:35;4.97;;;3.38;;
11677;SDS011;5895;41.950;24.372;2022-09-23T06:25:03;2.70;;;2.50;;
11677;SDS011;5895;41.950;24.372;2022-09-23T06:27:31;3.30;;;2.95;;
11677;SDS011;5895;41.950;24.372;2022-09-23T06:29:58;7.63;;;6.85;;
11677;SDS011;5895;41.950;24.372;2022-09-23T06:32:26;6.00;;;3.70;;
11677;SDS011;5895;41.950;24.372;2022-09-23T06:34:53;4.93;;;4.53;;
11677;SDS011;5895;41.950;24.372;2022-09-23T06:37:21;9.32;;;8.55;;
11677;SDS011;5895;41.950;24.372;2022-09-23T06:39:50;4.55;;;4.15;;
11677;SDS011;5895;41.950;24.372;2022-09-23T06:42:19;3.78;;;3.47;;
11677;SDS011;5895;41.950;24.372;2022-09-23T06:44:46;3.58;;;2.90;;
11677;SDS011;5895;41.950;24.372;2022-09-23T06:47:14;3.60;;;3.30;;
11677;SDS011;5895;41.950;24.372;2022-09-23T06:49:41;2.90;;;2.70;;
11677;SDS011;5895;41.950;24.372;2022-09-23T06:52:09;3.33;;;3.10;;
11677;SDS011;5895;41.950;24.372;2022-09-23T06:54:36;4.10;;;3.70;;
11677;SDS011;5895;41.950;24.372;2022-09-23T06:57:05;3.80;;;3.50;;
11677;SDS011;5895;41.950;24.372;2022-09-23T06:59:34;4.03;;;3.72;;
11677;SDS011;5895;41.950;24.372;2022-09-23T07:02:02;4.45;;;4.15;;
11677;SDS011;5895;41.950;24.372;2022-09-23T07:04:29;5.03;;;4.53;;
11677;SDS011;5895;41.950;24.372;2022-09-23T07:06:56;3.15;;;2.85;;
11677;SDS011;5895;41.950;24.372;2022-09-23T07:09:24;3.45;;;2.95;;
11677;SDS011;5895;41.950;24.372;2022-09-23T07:11:52;2.60;;;2.40;;
11677;SDS011;5895;41.950;24.372;2022-09-23T07:14:21;4.05;;;2.40;;
11677;SDS011;5895;41.950;24.372;2022-09-23T07:16:49;4.43;;;2.40;;
11677;SDS011;5895;41.950;24.372;2022-09-23T07:19:18;2.92;;;2.72;;
11677;SDS011;5895;41.950;24.372;2022-09-23T07:21:45;2.90;;;2.60;;
11677;SDS011;5895;41.950;24.372;2022-09-23T07:24:13;2.38;;;2.17;;
11677;SDS011;5895;41.950;24.372;2022-09-23T07:26:41;2.58;;;2.38;;
11677;SDS011;5895;41.950;24.372;2022-09-23T07:29:10;3.15;;;2.92;;
11677;SDS011;5895;41.950;24.372;2022-09-23T07:31:41;17.73;;;14.70;;
11677;SDS011;5895;41.950;24.372;2022-09-23T07:34:08;3.45;;;3.20;;
11677;SDS011;5895;41.950;24.372;2022-09-23T07:36:37;7.22;;;6.65;;
11677;SDS011;5895;41.950;24.372;2022-09-23T07:39:06;3.05;;;2.85;;
11677;SDS011;5895;41.950;24.372;2022-09-23T07:41:34;2.97;;;2.78;;
11677;SDS011;5895;41.950;24.372;2022-09-23T07:44:02;2.88;;;2.67;;
11677;SDS011;5895;41.950;24.372;2022-09-23T07:46:32;2.97;;;2.78;;
11677;SDS011;5895;41.950;24.372;2022-09-23T07:49:03;2.60;;;2.40;;
11677;SDS011;5895;41.950;24.372;2022-09-23T07:51:31;2.88;;;2.63;;
11677;SDS011;5895;41.950;24.372;2022-09-23T07:54:01;2.80;;;2.60;;
11677;SDS011;5895;41.950;24.372;2022-09-23T07:56:31;3.85;;;2.60;;
11677;SDS011;5895;41.950;24.372;2022-09-23T07:59:00;3.35;;;3.15;;
11677;SDS011;5895;41.950;24.372;2022-09-23T08:01:28;3.65;;;3.35;;
11677;SDS011;5895;41.950;24.372;2022-09-23T08:03:57;2.63;;;2.42;;
11677;SDS011;5895;41.950;24.372;2022-09-23T08:06:28;2.20;;;2.10;;
11677;SDS011;5895;41.950;24.372;2022-09-23T08:08:56;2.72;;;2.53;;
11677;SDS011;5895;41.950;24.372;2022-09-23T08:11:25;2.97;;;2.67;;
11677;SDS011;5895;41.950;24.372;2022-09-23T08:13:53;3.00;;;2.80;;
11677;SDS011;5895;41.950;24.372;2022-09-23T08:16:21;2.50;;;2.30;;
11677;SDS011;5895;41.950;24.372;2022-09-23T08:18:48;4.93;;;2.90;;
11677;SDS011;5895;41.950;24.372;2022-09-23T08:21:17;2.67;;;2.47;;
11677;SDS011;5895;41.950;24.372;2022-09-23T08:23:47;3.17;;;2.90;;
11677;SDS011;5895;41.950;24.372;2022-09-23T08:26:15;5.38;;;3.78;;
11677;SDS011;5895;41.950;24.372;2022-09-23T08:28:42;3.33;;;3.03;;
11677;SDS011;5895;41.950;24.372;2022-09-23T08:31:12;2.92;;;2.72;;
11677;SDS011;5895;41.950;24.372;2022-09-23T08:33:40;2.83;;;2.63;;
11677;SDS011;5895;41.950;24.372;2022-09-23T08:36:07;2.70;;;2.50;;
11677;SDS011;5895;41.950;24.372;2022-09-23T08:38:35;2.65;;;2.45;;
11677;SDS011;5895;41.950;24.372;2022-09-23T08:41:06;2.95;;;2.58;;
11677;SDS011;5895;41.950;24.372;2022-09-23T08:43:38;2.58;;;2.38;;
11677;SDS011;5895;41.950;24.372;2022-09-23T08:46:12;2.85;;;2.65;;
11677;SDS011;5895;41.950;24.372;2022-09-23T08:48:47;2.40;;;2.20;;
11677;SDS011;5895;41.950;24.372;2022-09-23T08:51:16;6.57;;;2.88;;
11677;SDS011;5895;41.950;24.372;2022-09-23T08:53:51;4.68;;;2.30;;
11677;SDS011;5895;41.950;24.372;2022-09-23T08:56:21;3.00;;;2.60;;
11677;SDS011;5895;41.950;24.372;2022-09-23T08:58:53;2.90;;;2.70;;
11677;SDS011;5895;41.950;24.372;2022-09-23T09:01:27;2.83;;;2.63;;
11677;SDS011;5895;41.950;24.372;2022-09-23T09:04:00;2.60;;;2.40;;
11677;SDS011;5895;41.950;24.372;2022-09-23T09:06:31;3.40;;;2.60;;
11677;SDS011;5895;41.950;24.372;2022-09-23T09:09:05;2.83;;;2.63;;
11677;SDS011;5895;41.950;24.372;2022-09-23T09:11:42;3.15;;;2.33;;
11677;SDS011;5895;41.950;24.372;2022-09-23T09:14:16;2.85;;;2.65;;
11677;SDS011;5895;41.950;24.372;2022-09-23T09:16:54;4.80;;;3.08;;
11677;SDS011;5895;41.950;24.372;2022-09-23T09:22:37;3.22;;;2.92;;
11677;SDS011;5895;41.950;24.372;2022-09-23T09:25:19;2.95;;;2.50;;
11677;SDS011;5895;41.950;24.372;2022-09-23T09:27:52;3.38;;;3.08;;
11677;SDS011;5895;41.950;24.372;2022-09-23T09:30:21;2.85;;;2.65;;
11677;SDS011;5895;41.950;24.372;2022-09-23T09:32:52;2.80;;;2.60;;
11677;SDS011;5895;41.950;24.372;2022-09-23T09:35:28;2.80;;;2.60;;
11677;SDS011;5895;41.950;24.372;2022-09-23T09:38:02;3.78;;;3.42;;
11677;SDS011;5895;41.950;24.372;2022-09-23T09:40:31;3.55;;;2.97;;
11677;SDS011;5895;41.950;24.372;2022-09-23T09:43:01;4.80;;;2.70;;
11677;SDS011;5895;41.950;24.372;2022-09-23T09:45:35;2.58;;;2.38;;
11677;SDS011;5895;41.950;24.372;2022-09-23T09:48:25;2.50;;;2.30;;
11677;SDS011;5895;41.950;24.372;2022-09-23T09:50:58;2.90;;;2.70;;
11677;SDS011;5895;41.950;24.372;2022-09-23T09:53:44;2.72;;;2.50;;
11677;SDS011;5895;41.950;24.372;2022-09-23T09:56:12;4.05;;;2.83;;
11677;SDS011;5895;41.950;24.372;2022-09-23T09:58:44;2.10;;;2.00;;
11677;SDS011;5895;41.950;24.372;2022-09-23T10:01:18;5.25;;;4.75;;
11677;SDS011;5895;41.950;24.372;2022-09-23T10:03:47;2.40;;;2.20;;
11677;SDS011;5895;41.950;24.372;2022-09-23T10:06:17;3.10;;;2.88;;
11677;SDS011;5895;41.950;24.372;2022-09-23T10:11:38;2.10;;;2.00;;
11677;SDS011;5895;41.950;24.372;2022-09-23T10:14:11;1.85;;;1.75;;
11677;SDS011;5895;41.950;24.372;2022-09-23T10:16:42;3.40;;;2.15;;
11677;SDS011;5895;41.950;24.372;2022-09-23T10:19:13;2.60;;;2.20;;
11677;SDS011;5895;41.950;24.372;2022-09-23T10:21:49;2.30;;;2.10;;
11677;SDS011;5895;41.950;24.372;2022-09-23T10:24:22;1.90;;;1.80;;
11677;SDS011;5895;41.950;24.372;2022-09-23T10:26:52;2.03;;;1.83;;
11677;SDS011;5895;41.950;24.372;2022-09-23T10:29:28;2.55;;;2.35;;
11677;SDS011;5895;41.950;24.372;2022-09-23T10:32:12;2.33;;;2.20;;
11677;SDS011;5895;41.950;24.372;2022-09-23T10:34:53;2.08;;;1.98;;
11677;SDS011;5895;41.950;24.372;2022-09-23T10:37:33;2.40;;;2.05;;
11677;SDS011;5895;41.950;24.372;2022-09-23T10:40:13;2.00;;;1.90;;
11677;SDS011;5895;41.950;24.372;2022-09-23T10:43:07;2.30;;;2.10;;
11677;SDS011;5895;41.950;24.372;2022-09-23T10:46:17;3.63;;;2.67;;
11677;SDS011;5895;41.950;24.372;2022-09-23T10:52:05;3.03;;;2.80;;
11677;SDS011;5895;41.950;24.372;2022-09-23T10:54:45;3.22;;;2.20;;
11677;SDS011;5895;41.950;24.372;2022-09-23T10:57:24;2.47;;;2.28;;
11677;SDS011;5895;41.950;24.372;2022-09-23T11:00:15;4.50;;;4.20;;
11677;SDS011;5895;41.950;24.372;2022-09-23T11:06:04;2.65;;;2.45;;
11677;SDS011;5895;41.950;24.372;2022-09-23T11:08:44;4.28;;;2.17;;
11677;SDS011;5895;41.950;24.372;2022-09-23T11:11:27;3.22;;;1.90;;
11677;SDS011;5895;41.950;24.372;2022-09-23T11:17:06;1.95;;;1.73;;
11677;SDS011;5895;41.950;24.372;2022-09-23T11:19:59;2.97;;;2.10;;
11677;SDS011;5895;41.950;24.372;2022-09-23T11:22:54;2.95;;;2.00;;
11677;SDS011;5895;41.950;24.372;2022-09-23T11:25:39;6.10;;;4.32;;
11677;SDS011;5895;41.950;24.372;2022-09-23T11:28:23;2.80;;;1.52;;
11677;SDS011;5895;41.950;24.372;2022-09-23T11:31:11;2.00;;;1.80;;
11677;SDS011;5895;41.950;24.372;2022-09-23T11:33:55;1.80;;;1.70;;
11677;SDS011;5895;41.950;24.372;2022-09-23T11:36:38;1.83;;;1.70;;
11677;SDS011;5895;41.950;24.372;2022-09-23T11:39:13;4.00;;;1.90;;
11677;SDS011;5895;41.950;24.372;2022-09-23T11:41:43;1.80;;;1.70;;
11677;SDS011;5895;41.950;24.372;2022-09-23T11:44:13;3.22;;;2.22;;
11677;SDS011;5895;41.950;24.372;2022-09-23T11:46:44;2.33;;;2.13;;
11677;SDS011;5895;41.950;24.372;2022-09-23T11:49:17;1.95;;;1.80;;
11677;SDS011;5895;41.950;24.372;2022-09-23T11:51:55;3.38;;;1.92;;
11677;SDS011;5895;41.950;24.372;2022-09-23T11:54:30;2.55;;;1.90;;
11677;SDS011;5895;41.950;24.372;2022-09-23T11:57:05;3.60;;;2.10;;
11677;SDS011;5895;41.950;24.372;2022-09-23T11:59:38;2.38;;;2.17;;
11677;SDS011;5895;41.950;24.372;2022-09-23T12:02:13;2.03;;;1.83;;
11677;SDS011;5895;41.950;24.372;2022-09-23T12:04:47;1.60;;;1.50;;
11677;SDS011;5895;41.950;24.372;2022-09-23T12:07:23;4.05;;;2.70;;
11677;SDS011;5895;41.950;24.372;2022-09-23T12:09:56;2.55;;;2.35;;
11677;SDS011;5895;41.950;24.372;2022-09-23T12:12:30;3.05;;;2.25;;
11677;SDS011;5895;41.950;24.372;2022-09-23T12:15:09;2.78;;;1.92;;
11677;SDS011;5895;41.950;24.372;2022-09-23T12:18:06;1.90;;;1.80;;
11677;SDS011;5895;41.950;24.372;2022-09-23T12:20:51;2.08;;;1.75;;
11677;SDS011;5895;41.950;24.372;2022-09-23T12:23:34;1.80;;;1.70;;
11677;SDS011;5895;41.950;24.372;2022-09-23T12:26:13;1.50;;;1.40;;
11677;SDS011;5895;41.950;24.372;2022-09-23T12:28:45;2.15;;;1.80;;
11677;SDS011;5895;41.950;24.372;2022-09-23T12:31:15;3.15;;;1.98;;
11677;SDS011;5895;41.950;24.372;2022-09-23T12:33:48;2.83;;;2.30;;
11677;SDS011;5895;41.950;24.372;2022-09-23T12:36:23;2.25;;;2.05;;
11677;SDS011;5895;41.950;24.372;2022-09-23T12:38:55;2.20;;;2.00;;
11677;SDS011;5895;41.950;24.372;2022-09-23T12:41:28;2.42;;;2.22;;
11677;SDS011;5895;41.950;24.372;2022-09-23T12:44:12;6.30;;;2.28;;
11677;SDS011;5895;41.950;24.372;2022-09-23T12:46:41;2.17;;;2.03;;
11677;SDS011;5895;41.950;24.372;2022-09-23T12:49:22;2.40;;;2.20;;
11677;SDS011;5895;41.950;24.372;2022-09-23T12:54:54;2.30;;;2.10;;
11677;SDS011;5895;41.950;24.372;2022-09-23T12:57:41;2.10;;;1.90;;
11677;SDS011;5895;41.950;24.372;2022-09-23T13:00:21;4.25;;;2.15;;
11677;SDS011;5895;41.950;24.372;2022-09-23T13:02:56;2.03;;;1.83;;
11677;SDS011;5895;41.950;24.372;2022-09-23T13:05:44;2.00;;;1.88;;
11677;SDS011;5895;41.950;24.372;2022-09-23T13:08:30;2.20;;;2.00;;
11677;SDS011;5895;41.950;24.372;2022-09-23T13:11:04;2.38;;;1.92;;
11677;SDS011;5895;41.950;24.372;2022-09-23T13:13:39;1.90;;;1.80;;
11677;SDS011;5895;41.950;24.372;2022-09-23T13:16:10;3.22;;;1.98;;
11677;SDS011;5895;41.950;24.372;2022-09-23T13:18:49;1.80;;;1.70;;
11677;SDS011;5895;41.950;24.372;2022-09-23T13:24:19;1.92;;;1.83;;
11677;SDS011;5895;41.950;24.372;2022-09-23T13:27:04;3.88;;;2.10;;
11677;SDS011;5895;41.950;24.372;2022-09-23T13:29:40;2.10;;;1.90;;
11677;SDS011;5895;41.950;24.372;2022-09-23T13:32:13;3.30;;;2.47;;
11677;SDS011;5895;41.950;24.372;2022-09-23T13:34:43;3.13;;;2.83;;
11677;SDS011;5895;41.950;24.372;2022-09-23T13:37:20;3.88;;;1.98;;
11677;SDS011;5895;41.950;24.372;2022-09-23T13:39:49;4.85;;;4.15;;
11677;SDS011;5895;41.950;24.372;2022-09-23T13:42:22;9.38;;;6.95;;
11677;SDS011;5895;41.950;24.372;2022-09-23T13:44:53;15.50;;;12.88;;
11677;SDS011;5895;41.950;24.372;2022-09-23T13:47:25;4.32;;;3.38;;
11677;SDS011;5895;41.950;24.372;2022-09-23T13:49:56;3.15;;;2.88;;
11677;SDS011;5895;41.950;24.372;2022-09-23T13:52:25;3.50;;;3.30;;
11677;SDS011;5895;41.950;24.372;2022-09-23T13:54:54;2.78;;;2.45;;
11677;SDS011;5895;41.950;24.372;2022-09-23T13:57:26;3.55;;;3.25;;
11677;SDS011;5895;41.950;24.372;2022-09-23T13:59:59;4.55;;;2.80;;
11677;SDS011;5895;41.950;24.372;2022-09-23T14:02:27;3.88;;;3.58;;
11677;SDS011;5895;41.950;24.372;2022-09-23T14:04:55;4.65;;;2.20;;
11677;SDS011;5895;41.950;24.372;2022-09-23T14:07:24;2.50;;;2.30;;
11677;SDS011;5895;41.950;24.372;2022-09-23T14:09:53;3.85;;;2.70;;
11677;SDS011;5895;41.950;24.372;2022-09-23T14:12:23;3.20;;;2.90;;
11677;SDS011;5895;41.950;24.372;2022-09-23T14:14:52;2.20;;;2.00;;
11677;SDS011;5895;41.950;24.372;2022-09-23T14:17:20;3.13;;;2.75;;
11677;SDS011;5895;41.950;24.372;2022-09-23T14:19:48;3.40;;;3.03;;
11677;SDS011;5895;41.950;24.372;2022-09-23T14:22:23;3.55;;;3.25;;
11677;SDS011;5895;41.950;24.372;2022-09-23T14:24:51;3.47;;;3.10;;
11677;SDS011;5895;41.950;24.372;2022-09-23T14:27:24;2.55;;;2.35;;
11677;SDS011;5895;41.950;24.372;2022-09-23T14:29:55;3.15;;;2.90;;
11677;SDS011;5895;41.950;24.372;2022-09-23T14:32:24;2.92;;;2.55;;
11677;SDS011;5895;41.950;24.372;2022-09-23T14:35:03;3.03;;;2.75;;
11677;SDS011;5895;41.950;24.372;2022-09-23T14:37:37;6.03;;;3.10;;
11677;SDS011;5895;41.950;24.372;2022-09-23T14:40:24;4.40;;;3.25;;
11677;SDS011;5895;41.950;24.372;2022-09-23T14:42:56;5.95;;;2.60;;
11677;SDS011;5895;41.950;24.372;2022-09-23T14:45:30;4.20;;;3.80;;
11677;SDS011;5895;41.950;24.372;2022-09-23T14:48:00;6.40;;;5.90;;
11677;SDS011;5895;41.950;24.372;2022-09-23T14:50:31;5.68;;;3.97;;
11677;SDS011;5895;41.950;24.372;2022-09-23T14:53:04;3.65;;;2.80;;
11677;SDS011;5895;41.950;24.372;2022-09-23T14:56:06;4.70;;;3.92;;
11677;SDS011;5895;41.950;24.372;2022-09-23T14:58:40;3.22;;;2.92;;
11677;SDS011;5895;41.950;24.372;2022-09-23T15:01:36;3.08;;;2.80;;
11677;SDS011;5895;41.950;24.372;2022-09-23T15:04:16;2.78;;;2.55;;
11677;SDS011;5895;41.950;24.372;2022-09-23T15:06:55;6.80;;;4.50;;
11677;SDS011;5895;41.950;24.372;2022-09-23T15:09:27;7.40;;;5.43;;
11677;SDS011;5895;41.950;24.372;2022-09-23T15:11:58;4.13;;;3.72;;
11677;SDS011;5895;41.950;24.372;2022-09-23T15:14:28;5.32;;;2.88;;
11677;SDS011;5895;41.950;24.372;2022-09-23T15:17:02;4.55;;;4.15;;
11677;SDS011;5895;41.950;24.372;2022-09-23T15:19:33;6.03;;;5.35;;
11677;SDS011;5895;41.950;24.372;2022-09-23T15:22:05;4.28;;;3.60;;
11677;SDS011;5895;41.950;24.372;2022-09-23T15:24:36;5.35;;;3.47;;
11677;SDS011;5895;41.950;24.372;2022-09-23T15:27:15;12.27;;;8.68;;
11677;SDS011;5895;41.950;24.372;2022-09-23T15:29:50;6.18;;;4.85;;
11677;SDS011;5895;41.950;24.372;2022-09-23T15:32:20;17.35;;;11.70;;
11677;SDS011;5895;41.950;24.372;2022-09-23T15:34:48;5.82;;;3.90;;
11677;SDS011;5895;41.950;24.372;2022-09-23T15:37:16;5.18;;;3.47;;
11677;SDS011;5895;41.950;24.372;2022-09-23T15:39:43;5.53;;;4.38;;
11677;SDS011;5895;41.950;24.372;2022-09-23T15:42:13;4.70;;;2.90;;
11677;SDS011;5895;41.950;24.372;2022-09-23T15:44:42;3.90;;;3.25;;
11677;SDS011;5895;41.950;24.372;2022-09-23T15:47:11;12.68;;;8.77;;
11677;SDS011;5895;41.950;24.372;2022-09-23T15:49:44;7.70;;;4.68;;
11677;SDS011;5895;41.950;24.372;2022-09-23T15:52:12;10.57;;;7.18;;
11677;SDS011;5895;41.950;24.372;2022-09-23T15:54:42;8.27;;;5.18;;